sensor_id;sensor_type;location;lat;lon;timestamp;P1;durP1;ratioP1;P2;durP2;ratioP2
75634;SDS011;64227;48.724;9.104;2023-06-04T00:01:32;10.05;;;4.18;;
75634;SDS011;64227;48.724;9.104;2023-06-04T00:03:57;7.35;;;4.05;;
75634;SDS011;64227;48.724;9.104;2023-06-04T00:06:23;6.72;;;3.67;;
75634;SDS011;64227;48.724;9.104;2023-06-04T00:08:48;6.03;;;3.65;;
75634;SDS011;64227;48.724;9.104;2023-06-04T00:11:13;7.88;;;3.85;;
75634;SDS011;64227;48.724;9.104;2023-06-04T00:13:38;6.63;;;4.20;;
75634;SDS011;64227;48.724;9.104;2023-06-04T00:16:04;5.90;;;3.58;;
75634;SDS011;64227;48.724;9.104;2023-06-04T00:18:29;5.43;;;3.70;;
75634;SDS011;64227;48.724;9.104;2023-06-04T00:20:55;3.38;;;3.08;;
75634;SDS011;64227;48.724;9.104;2023-06-04T00:23:20;4.70;;;3.40;;
75634;SDS011;64227;48.724;9.104;2023-06-04T00:25:45;5.20;;;3.38;;
75634;SDS011;64227;48.724;9.104;2023-06-04T00:28:11;4.38;;;3.10;;
75634;SDS011;64227;48.724;9.104;2023-06-04T00:30:36;6.00;;;3.38;;
75634;SDS011;64227;48.724;9.104;2023-06-04T00:33:01;5.20;;;3.10;;
75634;SDS011;64227;48.724;9.104;2023-06-04T00:35:26;4.82;;;3.17;;
75634;SDS011;64227;48.724;9.104;2023-06-04T00:37:52;4.72;;;3.33;;
75634;SDS011;64227;48.724;9.104;2023-06-04T00:40:17;4.97;;;3.38;;
75634;SDS011;64227;48.724;9.104;2023-06-04T00:42:43;3.67;;;2.95;;
75634;SDS011;64227;48.724;9.104;2023-06-04T00:45:10;5.68;;;3.47;;
75634;SDS011;64227;48.724;9.104;2023-06-04T00:47:35;5.20;;;3.50;;
75634;SDS011;64227;48.724;9.104;2023-06-04T00:50:01;6.10;;;3.55;;
75634;SDS011;64227;48.724;9.104;2023-06-04T00:52:26;4.82;;;3.67;;
75634;SDS011;64227;48.724;9.104;2023-06-04T00:54:52;5.28;;;3.50;;
75634;SDS011;64227;48.724;9.104;2023-06-04T00:57:19;6.07;;;3.65;;
75634;SDS011;64227;48.724;9.104;2023-06-04T00:59:46;4.93;;;3.70;;
75634;SDS011;64227;48.724;9.104;2023-06-04T01:02:12;4.78;;;3.33;;
75634;SDS011;64227;48.724;9.104;2023-06-04T01:04:49;5.88;;;3.50;;
75634;SDS011;64227;48.724;9.104;2023-06-04T01:07:27;4.38;;;3.30;;
75634;SDS011;64227;48.724;9.104;2023-06-04T01:09:55;4.97;;;3.70;;
75634;SDS011;64227;48.724;9.104;2023-06-04T01:12:21;6.63;;;3.92;;
75634;SDS011;64227;48.724;9.104;2023-06-04T01:14:47;4.65;;;3.55;;
75634;SDS011;64227;48.724;9.104;2023-06-04T01:17:19;5.13;;;3.65;;
75634;SDS011;64227;48.724;9.104;2023-06-04T01:22:31;3.88;;;2.97;;
75634;SDS011;64227;48.724;9.104;2023-06-04T01:27:59;5.43;;;3.40;;
75634;SDS011;64227;48.724;9.104;2023-06-04T01:30:32;5.13;;;3.30;;
75634;SDS011;64227;48.724;9.104;2023-06-04T01:33:00;4.55;;;3.25;;
75634;SDS011;64227;48.724;9.104;2023-06-04T01:35:26;4.43;;;3.45;;
75634;SDS011;64227;48.724;9.104;2023-06-04T01:37:52;4.75;;;3.85;;
75634;SDS011;64227;48.724;9.104;2023-06-04T01:40:18;4.57;;;3.53;;
75634;SDS011;64227;48.724;9.104;2023-06-04T01:42:43;4.45;;;3.28;;
75634;SDS011;64227;48.724;9.104;2023-06-04T01:45:09;4.90;;;3.25;;
75634;SDS011;64227;48.724;9.104;2023-06-04T01:47:35;4.15;;;3.30;;
75634;SDS011;64227;48.724;9.104;2023-06-04T01:50:01;4.55;;;3.42;;
75634;SDS011;64227;48.724;9.104;2023-06-04T01:52:27;3.58;;;2.92;;
75634;SDS011;64227;48.724;9.104;2023-06-04T01:54:52;4.85;;;3.10;;
75634;SDS011;64227;48.724;9.104;2023-06-04T01:57:23;4.88;;;3.30;;
75634;SDS011;64227;48.724;9.104;2023-06-04T01:59:49;5.03;;;3.50;;
75634;SDS011;64227;48.724;9.104;2023-06-04T02:02:15;5.20;;;3.50;;
75634;SDS011;64227;48.724;9.104;2023-06-04T02:04:41;4.68;;;3.53;;
75634;SDS011;64227;48.724;9.104;2023-06-04T02:07:10;4.97;;;3.30;;
75634;SDS011;64227;48.724;9.104;2023-06-04T02:09:38;6.05;;;3.55;;
75634;SDS011;64227;48.724;9.104;2023-06-04T02:12:05;4.97;;;3.00;;
75634;SDS011;64227;48.724;9.104;2023-06-04T02:14:30;4.57;;;3.50;;
75634;SDS011;64227;48.724;9.104;2023-06-04T02:16:56;4.38;;;3.40;;
75634;SDS011;64227;48.724;9.104;2023-06-04T02:19:23;5.22;;;3.20;;
75634;SDS011;64227;48.724;9.104;2023-06-04T02:21:50;5.13;;;3.58;;
75634;SDS011;64227;48.724;9.104;2023-06-04T02:24:16;3.03;;;2.72;;
75634;SDS011;64227;48.724;9.104;2023-06-04T02:26:41;5.70;;;3.35;;
75634;SDS011;64227;48.724;9.104;2023-06-04T02:29:07;5.03;;;3.65;;
75634;SDS011;64227;48.724;9.104;2023-06-04T02:31:32;4.57;;;3.63;;
75634;SDS011;64227;48.724;9.104;2023-06-04T02:33:57;5.50;;;3.50;;
75634;SDS011;64227;48.724;9.104;2023-06-04T02:36:23;4.30;;;3.47;;
75634;SDS011;64227;48.724;9.104;2023-06-04T02:38:48;5.28;;;3.30;;
75634;SDS011;64227;48.724;9.104;2023-06-04T02:41:13;5.13;;;3.30;;
75634;SDS011;64227;48.724;9.104;2023-06-04T02:43:38;4.43;;;3.30;;
75634;SDS011;64227;48.724;9.104;2023-06-04T02:46:04;8.05;;;3.55;;
75634;SDS011;64227;48.724;9.104;2023-06-04T02:48:31;5.32;;;3.55;;
75634;SDS011;64227;48.724;9.104;2023-06-04T02:50:56;4.97;;;3.33;;
75634;SDS011;64227;48.724;9.104;2023-06-04T02:53:21;5.28;;;3.40;;
75634;SDS011;64227;48.724;9.104;2023-06-04T02:55:48;5.82;;;3.65;;
75634;SDS011;64227;48.724;9.104;2023-06-04T02:58:15;4.07;;;3.47;;
75634;SDS011;64227;48.724;9.104;2023-06-04T03:00:41;4.00;;;3.42;;
75634;SDS011;64227;48.724;9.104;2023-06-04T03:03:06;4.63;;;3.00;;
75634;SDS011;64227;48.724;9.104;2023-06-04T03:05:32;4.20;;;3.08;;
75634;SDS011;64227;48.724;9.104;2023-06-04T03:07:58;4.40;;;3.08;;
75634;SDS011;64227;48.724;9.104;2023-06-04T03:10:24;4.97;;;3.10;;
75634;SDS011;64227;48.724;9.104;2023-06-04T03:12:49;4.63;;;2.83;;
75634;SDS011;64227;48.724;9.104;2023-06-04T03:15:15;4.07;;;2.60;;
75634;SDS011;64227;48.724;9.104;2023-06-04T03:17:40;3.70;;;2.72;;
75634;SDS011;64227;48.724;9.104;2023-06-04T03:20:06;5.80;;;3.03;;
75634;SDS011;64227;48.724;9.104;2023-06-04T03:22:32;4.80;;;2.83;;
75634;SDS011;64227;48.724;9.104;2023-06-04T03:24:59;3.90;;;2.83;;
75634;SDS011;64227;48.724;9.104;2023-06-04T03:27:25;3.60;;;3.00;;
75634;SDS011;64227;48.724;9.104;2023-06-04T03:29:50;4.22;;;3.05;;
75634;SDS011;64227;48.724;9.104;2023-06-04T03:32:16;4.47;;;3.13;;
75634;SDS011;64227;48.724;9.104;2023-06-04T03:34:42;3.92;;;3.13;;
75634;SDS011;64227;48.724;9.104;2023-06-04T03:37:07;4.88;;;3.30;;
75634;SDS011;64227;48.724;9.104;2023-06-04T03:39:32;4.07;;;2.58;;
75634;SDS011;64227;48.724;9.104;2023-06-04T03:41:58;3.45;;;2.92;;
75634;SDS011;64227;48.724;9.104;2023-06-04T03:44:23;4.78;;;2.70;;
75634;SDS011;64227;48.724;9.104;2023-06-04T03:46:48;4.15;;;2.80;;
75634;SDS011;64227;48.724;9.104;2023-06-04T03:49:14;3.65;;;2.63;;
75634;SDS011;64227;48.724;9.104;2023-06-04T03:51:40;3.78;;;2.33;;
75634;SDS011;64227;48.724;9.104;2023-06-04T03:54:06;3.63;;;2.50;;
75634;SDS011;64227;48.724;9.104;2023-06-04T03:56:31;2.63;;;2.17;;
75634;SDS011;64227;48.724;9.104;2023-06-04T03:58:57;3.20;;;2.20;;
75634;SDS011;64227;48.724;9.104;2023-06-04T04:01:22;4.18;;;2.30;;
75634;SDS011;64227;48.724;9.104;2023-06-04T04:03:51;3.65;;;2.35;;
75634;SDS011;64227;48.724;9.104;2023-06-04T04:06:17;3.55;;;2.33;;
75634;SDS011;64227;48.724;9.104;2023-06-04T04:08:42;2.60;;;2.10;;
75634;SDS011;64227;48.724;9.104;2023-06-04T04:11:09;3.58;;;2.30;;
75634;SDS011;64227;48.724;9.104;2023-06-04T04:13:35;5.00;;;2.63;;
75634;SDS011;64227;48.724;9.104;2023-06-04T04:16:00;3.40;;;2.28;;
75634;SDS011;64227;48.724;9.104;2023-06-04T04:18:26;3.28;;;2.25;;
75634;SDS011;64227;48.724;9.104;2023-06-04T04:20:51;3.25;;;2.35;;
75634;SDS011;64227;48.724;9.104;2023-06-04T04:23:16;3.03;;;2.30;;
75634;SDS011;64227;48.724;9.104;2023-06-04T04:25:42;3.63;;;2.30;;
75634;SDS011;64227;48.724;9.104;2023-06-04T04:28:09;2.95;;;2.38;;
75634;SDS011;64227;48.724;9.104;2023-06-04T04:30:34;3.45;;;2.20;;
75634;SDS011;64227;48.724;9.104;2023-06-04T04:33:03;2.88;;;1.98;;
75634;SDS011;64227;48.724;9.104;2023-06-04T04:35:31;3.20;;;2.20;;
75634;SDS011;64227;48.724;9.104;2023-06-04T04:37:58;3.55;;;2.00;;
75634;SDS011;64227;48.724;9.104;2023-06-04T04:40:23;3.42;;;2.20;;
75634;SDS011;64227;48.724;9.104;2023-06-04T04:42:48;2.72;;;2.28;;
75634;SDS011;64227;48.724;9.104;2023-06-04T04:45:14;2.47;;;1.92;;
75634;SDS011;64227;48.724;9.104;2023-06-04T04:47:39;2.55;;;2.20;;
75634;SDS011;64227;48.724;9.104;2023-06-04T04:50:05;3.00;;;1.98;;
75634;SDS011;64227;48.724;9.104;2023-06-04T04:52:30;2.60;;;1.85;;
75634;SDS011;64227;48.724;9.104;2023-06-04T04:54:56;3.58;;;2.30;;
75634;SDS011;64227;48.724;9.104;2023-06-04T04:57:22;2.28;;;2.08;;
75634;SDS011;64227;48.724;9.104;2023-06-04T04:59:48;2.25;;;2.00;;
75634;SDS011;64227;48.724;9.104;2023-06-04T05:02:14;2.67;;;1.92;;
75634;SDS011;64227;48.724;9.104;2023-06-04T05:04:40;4.07;;;1.67;;
75634;SDS011;64227;48.724;9.104;2023-06-04T05:07:05;2.08;;;1.80;;
75634;SDS011;64227;48.724;9.104;2023-06-04T05:09:30;4.47;;;2.20;;
75634;SDS011;64227;48.724;9.104;2023-06-04T05:11:56;3.15;;;2.00;;
75634;SDS011;64227;48.724;9.104;2023-06-04T05:14:21;2.90;;;1.73;;
75634;SDS011;64227;48.724;9.104;2023-06-04T05:16:46;3.97;;;1.88;;
75634;SDS011;64227;48.724;9.104;2023-06-04T05:19:13;3.03;;;1.65;;
75634;SDS011;64227;48.724;9.104;2023-06-04T05:21:39;3.00;;;1.65;;
75634;SDS011;64227;48.724;9.104;2023-06-04T05:24:04;2.08;;;1.73;;
75634;SDS011;64227;48.724;9.104;2023-06-04T05:26:30;2.75;;;1.92;;
75634;SDS011;64227;48.724;9.104;2023-06-04T05:28:55;3.08;;;1.88;;
75634;SDS011;64227;48.724;9.104;2023-06-04T05:31:20;2.35;;;1.83;;
75634;SDS011;64227;48.724;9.104;2023-06-04T05:33:46;2.03;;;1.83;;
75634;SDS011;64227;48.724;9.104;2023-06-04T05:36:12;3.53;;;2.28;;
75634;SDS011;64227;48.724;9.104;2023-06-04T05:38:38;3.05;;;1.80;;
75634;SDS011;64227;48.724;9.104;2023-06-04T05:41:03;3.05;;;1.90;;
75634;SDS011;64227;48.724;9.104;2023-06-04T05:43:29;3.17;;;1.98;;
75634;SDS011;64227;48.724;9.104;2023-06-04T05:45:54;2.38;;;2.17;;
75634;SDS011;64227;48.724;9.104;2023-06-04T05:48:19;2.38;;;1.73;;
75634;SDS011;64227;48.724;9.104;2023-06-04T05:50:45;2.38;;;1.90;;
75634;SDS011;64227;48.724;9.104;2023-06-04T05:53:12;2.28;;;1.40;;
75634;SDS011;64227;48.724;9.104;2023-06-04T05:55:37;2.03;;;1.48;;
75634;SDS011;64227;48.724;9.104;2023-06-04T05:58:02;4.95;;;1.90;;
75634;SDS011;64227;48.724;9.104;2023-06-04T06:00:28;1.95;;;1.35;;
75634;SDS011;64227;48.724;9.104;2023-06-04T06:02:54;2.17;;;1.52;;
75634;SDS011;64227;48.724;9.104;2023-06-04T06:05:20;2.00;;;1.42;;
75634;SDS011;64227;48.724;9.104;2023-06-04T06:07:45;1.77;;;1.40;;
75634;SDS011;64227;48.724;9.104;2023-06-04T06:10:11;1.95;;;1.70;;
75634;SDS011;64227;48.724;9.104;2023-06-04T06:12:37;2.58;;;1.75;;
75634;SDS011;64227;48.724;9.104;2023-06-04T06:15:02;1.75;;;1.27;;
75634;SDS011;64227;48.724;9.104;2023-06-04T06:17:28;3.50;;;1.70;;
75634;SDS011;64227;48.724;9.104;2023-06-04T06:19:53;2.05;;;1.52;;
75634;SDS011;64227;48.724;9.104;2023-06-04T06:22:19;2.38;;;1.90;;
75634;SDS011;64227;48.724;9.104;2023-06-04T06:24:45;3.03;;;1.90;;
75634;SDS011;64227;48.724;9.104;2023-06-04T06:27:10;2.22;;;1.73;;
75634;SDS011;64227;48.724;9.104;2023-06-04T06:29:35;2.60;;;1.55;;
75634;SDS011;64227;48.724;9.104;2023-06-04T06:32:01;1.98;;;1.50;;
75634;SDS011;64227;48.724;9.104;2023-06-04T06:34:27;3.47;;;1.80;;
75634;SDS011;64227;48.724;9.104;2023-06-04T06:36:53;1.48;;;1.30;;
75634;SDS011;64227;48.724;9.104;2023-06-04T06:39:18;2.13;;;1.63;;
75634;SDS011;64227;48.724;9.104;2023-06-04T06:41:44;4.10;;;1.50;;
75634;SDS011;64227;48.724;9.104;2023-06-04T06:44:10;3.00;;;1.50;;
75634;SDS011;64227;48.724;9.104;2023-06-04T06:46:35;1.75;;;1.23;;
75634;SDS011;64227;48.724;9.104;2023-06-04T06:49:01;1.52;;;1.38;;
75634;SDS011;64227;48.724;9.104;2023-06-04T06:51:26;1.92;;;1.67;;
75634;SDS011;64227;48.724;9.104;2023-06-04T06:53:51;3.00;;;1.73;;
75634;SDS011;64227;48.724;9.104;2023-06-04T06:56:16;1.55;;;1.30;;
75634;SDS011;64227;48.724;9.104;2023-06-04T06:58:43;2.63;;;1.50;;
75634;SDS011;64227;48.724;9.104;2023-06-04T07:01:09;3.00;;;1.90;;
75634;SDS011;64227;48.724;9.104;2023-06-04T07:03:34;2.97;;;1.67;;
75634;SDS011;64227;48.724;9.104;2023-06-04T07:06:00;2.65;;;1.65;;
75634;SDS011;64227;48.724;9.104;2023-06-04T07:08:25;2.50;;;1.83;;
75634;SDS011;64227;48.724;9.104;2023-06-04T07:10:50;3.05;;;1.63;;
75634;SDS011;64227;48.724;9.104;2023-06-04T07:13:16;2.38;;;1.52;;
75634;SDS011;64227;48.724;9.104;2023-06-04T07:15:41;2.38;;;1.80;;
75634;SDS011;64227;48.724;9.104;2023-06-04T07:18:07;3.60;;;1.67;;
75634;SDS011;64227;48.724;9.104;2023-06-04T07:20:32;2.92;;;2.35;;
75634;SDS011;64227;48.724;9.104;2023-06-04T07:22:57;3.53;;;1.77;;
75634;SDS011;64227;48.724;9.104;2023-06-04T07:25:23;3.33;;;1.42;;
75634;SDS011;64227;48.724;9.104;2023-06-04T07:27:48;2.63;;;1.48;;
75634;SDS011;64227;48.724;9.104;2023-06-04T07:30:17;1.65;;;1.50;;
75634;SDS011;64227;48.724;9.104;2023-06-04T07:32:47;1.67;;;1.33;;
75634;SDS011;64227;48.724;9.104;2023-06-04T07:35:12;2.38;;;1.70;;
75634;SDS011;64227;48.724;9.104;2023-06-04T07:37:38;5.32;;;1.65;;
75634;SDS011;64227;48.724;9.104;2023-06-04T07:40:03;2.75;;;1.67;;
75634;SDS011;64227;48.724;9.104;2023-06-04T07:42:29;3.10;;;1.48;;
75634;SDS011;64227;48.724;9.104;2023-06-04T07:44:54;2.45;;;1.55;;
75634;SDS011;64227;48.724;9.104;2023-06-04T07:47:19;5.05;;;1.60;;
75634;SDS011;64227;48.724;9.104;2023-06-04T07:49:45;2.42;;;1.55;;
75634;SDS011;64227;48.724;9.104;2023-06-04T07:52:10;2.28;;;1.50;;
75634;SDS011;64227;48.724;9.104;2023-06-04T07:54:36;2.67;;;1.55;;
75634;SDS011;64227;48.724;9.104;2023-06-04T07:57:02;3.45;;;1.80;;
75634;SDS011;64227;48.724;9.104;2023-06-04T07:59:27;2.88;;;1.60;;
75634;SDS011;64227;48.724;9.104;2023-06-04T08:01:54;6.15;;;1.60;;
75634;SDS011;64227;48.724;9.104;2023-06-04T08:04:19;3.08;;;1.50;;
75634;SDS011;64227;48.724;9.104;2023-06-04T08:06:45;1.58;;;1.48;;
75634;SDS011;64227;48.724;9.104;2023-06-04T08:09:11;2.05;;;1.40;;
75634;SDS011;64227;48.724;9.104;2023-06-04T08:11:36;2.95;;;1.50;;
75634;SDS011;64227;48.724;9.104;2023-06-04T08:14:02;3.53;;;1.80;;
75634;SDS011;64227;48.724;9.104;2023-06-04T08:16:27;3.92;;;1.80;;
75634;SDS011;64227;48.724;9.104;2023-06-04T08:18:53;1.83;;;1.50;;
75634;SDS011;64227;48.724;9.104;2023-06-04T08:21:28;4.10;;;1.85;;
75634;SDS011;64227;48.724;9.104;2023-06-04T08:23:53;3.85;;;1.90;;
75634;SDS011;64227;48.724;9.104;2023-06-04T08:26:19;4.00;;;1.67;;
75634;SDS011;64227;48.724;9.104;2023-06-04T08:28:47;3.42;;;1.70;;
75634;SDS011;64227;48.724;9.104;2023-06-04T08:31:14;1.92;;;1.50;;
75634;SDS011;64227;48.724;9.104;2023-06-04T08:33:39;3.88;;;1.83;;
75634;SDS011;64227;48.724;9.104;2023-06-04T08:36:04;2.13;;;1.55;;
75634;SDS011;64227;48.724;9.104;2023-06-04T08:38:30;4.90;;;1.83;;
75634;SDS011;64227;48.724;9.104;2023-06-04T08:40:55;4.30;;;1.70;;
75634;SDS011;64227;48.724;9.104;2023-06-04T08:43:23;1.63;;;1.40;;
75634;SDS011;64227;48.724;9.104;2023-06-04T08:45:49;1.98;;;1.50;;
75634;SDS011;64227;48.724;9.104;2023-06-04T08:48:15;2.60;;;1.45;;
75634;SDS011;64227;48.724;9.104;2023-06-04T08:50:43;2.47;;;1.25;;
75634;SDS011;64227;48.724;9.104;2023-06-04T08:53:12;2.25;;;1.48;;
75634;SDS011;64227;48.724;9.104;2023-06-04T08:55:38;1.67;;;1.33;;
75634;SDS011;64227;48.724;9.104;2023-06-04T08:58:05;1.77;;;1.67;;
75634;SDS011;64227;48.724;9.104;2023-06-04T09:00:33;3.33;;;1.48;;
75634;SDS011;64227;48.724;9.104;2023-06-04T09:02:58;3.47;;;1.83;;
75634;SDS011;64227;48.724;9.104;2023-06-04T09:05:23;3.28;;;1.60;;
75634;SDS011;64227;48.724;9.104;2023-06-04T09:07:52;2.05;;;1.60;;
75634;SDS011;64227;48.724;9.104;2023-06-04T09:10:21;3.80;;;1.70;;
75634;SDS011;64227;48.724;9.104;2023-06-04T09:12:47;2.03;;;1.83;;
75634;SDS011;64227;48.724;9.104;2023-06-04T09:15:14;4.63;;;1.70;;
75634;SDS011;64227;48.724;9.104;2023-06-04T09:17:39;2.63;;;1.73;;
75634;SDS011;64227;48.724;9.104;2023-06-04T09:20:05;2.40;;;1.90;;
75634;SDS011;64227;48.724;9.104;2023-06-04T09:22:34;5.72;;;1.80;;
75634;SDS011;64227;48.724;9.104;2023-06-04T09:25:01;3.40;;;1.90;;
75634;SDS011;64227;48.724;9.104;2023-06-04T09:27:36;2.42;;;1.65;;
75634;SDS011;64227;48.724;9.104;2023-06-04T09:30:02;2.83;;;1.90;;
75634;SDS011;64227;48.724;9.104;2023-06-04T09:32:29;1.75;;;1.65;;
75634;SDS011;64227;48.724;9.104;2023-06-04T09:35:08;3.72;;;1.83;;
75634;SDS011;64227;48.724;9.104;2023-06-04T09:37:34;2.90;;;2.00;;
75634;SDS011;64227;48.724;9.104;2023-06-04T09:39:59;1.88;;;1.55;;
75634;SDS011;64227;48.724;9.104;2023-06-04T09:42:25;2.90;;;1.85;;
75634;SDS011;64227;48.724;9.104;2023-06-04T09:44:50;3.72;;;2.00;;
75634;SDS011;64227;48.724;9.104;2023-06-04T09:47:16;2.28;;;2.03;;
75634;SDS011;64227;48.724;9.104;2023-06-04T09:49:45;3.53;;;1.98;;
75634;SDS011;64227;48.724;9.104;2023-06-04T09:52:11;4.07;;;1.90;;
75634;SDS011;64227;48.724;9.104;2023-06-04T09:54:40;3.25;;;1.92;;
75634;SDS011;64227;48.724;9.104;2023-06-04T09:57:16;4.20;;;1.80;;
75634;SDS011;64227;48.724;9.104;2023-06-04T09:59:43;2.88;;;2.03;;
75634;SDS011;64227;48.724;9.104;2023-06-04T10:02:18;4.05;;;2.10;;
75634;SDS011;64227;48.724;9.104;2023-06-04T10:04:44;4.18;;;2.25;;
75634;SDS011;64227;48.724;9.104;2023-06-04T10:07:15;3.10;;;2.13;;
75634;SDS011;64227;48.724;9.104;2023-06-04T10:09:41;2.30;;;2.10;;
75634;SDS011;64227;48.724;9.104;2023-06-04T10:12:11;4.25;;;1.90;;
75634;SDS011;64227;48.724;9.104;2023-06-04T10:14:41;2.53;;;2.28;;
75634;SDS011;64227;48.724;9.104;2023-06-04T10:17:07;2.92;;;2.10;;
75634;SDS011;64227;48.724;9.104;2023-06-04T10:19:34;2.90;;;2.15;;
75634;SDS011;64227;48.724;9.104;2023-06-04T10:22:00;4.03;;;2.40;;
75634;SDS011;64227;48.724;9.104;2023-06-04T10:24:26;5.05;;;2.50;;
75634;SDS011;64227;48.724;9.104;2023-06-04T10:26:51;3.10;;;2.33;;
75634;SDS011;64227;48.724;9.104;2023-06-04T10:29:20;4.15;;;2.25;;
75634;SDS011;64227;48.724;9.104;2023-06-04T10:31:45;3.35;;;2.55;;
75634;SDS011;64227;48.724;9.104;2023-06-04T10:34:11;3.65;;;2.45;;
75634;SDS011;64227;48.724;9.104;2023-06-04T10:36:44;2.85;;;2.03;;
75634;SDS011;64227;48.724;9.104;2023-06-04T10:39:10;2.67;;;2.45;;
75634;SDS011;64227;48.724;9.104;2023-06-04T10:41:36;3.08;;;2.08;;
75634;SDS011;64227;48.724;9.104;2023-06-04T10:44:02;3.05;;;2.30;;
75634;SDS011;64227;48.724;9.104;2023-06-04T10:46:36;2.80;;;2.40;;
75634;SDS011;64227;48.724;9.104;2023-06-04T10:49:04;4.60;;;2.28;;
75634;SDS011;64227;48.724;9.104;2023-06-04T10:51:33;2.92;;;2.40;;
75634;SDS011;64227;48.724;9.104;2023-06-04T10:54:02;2.83;;;2.40;;
75634;SDS011;64227;48.724;9.104;2023-06-04T10:56:31;2.25;;;2.05;;
75634;SDS011;64227;48.724;9.104;2023-06-04T10:58:59;4.25;;;2.20;;
75634;SDS011;64227;48.724;9.104;2023-06-04T11:01:28;4.22;;;2.60;;
75634;SDS011;64227;48.724;9.104;2023-06-04T11:03:55;3.10;;;2.22;;
75634;SDS011;64227;48.724;9.104;2023-06-04T11:06:21;2.80;;;2.05;;
75634;SDS011;64227;48.724;9.104;2023-06-04T11:08:47;5.10;;;2.70;;
75634;SDS011;64227;48.724;9.104;2023-06-04T11:11:13;3.83;;;2.15;;
75634;SDS011;64227;48.724;9.104;2023-06-04T11:13:40;3.70;;;2.50;;
75634;SDS011;64227;48.724;9.104;2023-06-04T11:16:15;3.13;;;2.17;;
75634;SDS011;64227;48.724;9.104;2023-06-04T11:18:41;2.33;;;2.13;;
75634;SDS011;64227;48.724;9.104;2023-06-04T11:21:06;3.38;;;2.53;;
75634;SDS011;64227;48.724;9.104;2023-06-04T11:23:32;2.92;;;2.58;;
75634;SDS011;64227;48.724;9.104;2023-06-04T11:25:58;3.55;;;2.65;;
75634;SDS011;64227;48.724;9.104;2023-06-04T11:28:23;2.40;;;2.20;;
75634;SDS011;64227;48.724;9.104;2023-06-04T11:30:59;3.67;;;2.80;;
75634;SDS011;64227;48.724;9.104;2023-06-04T11:33:30;2.60;;;2.40;;
75634;SDS011;64227;48.724;9.104;2023-06-04T11:36:06;2.80;;;2.35;;
75634;SDS011;64227;48.724;9.104;2023-06-04T11:38:31;4.78;;;2.47;;
75634;SDS011;64227;48.724;9.104;2023-06-04T11:40:57;2.42;;;2.22;;
75634;SDS011;64227;48.724;9.104;2023-06-04T11:43:27;2.83;;;2.13;;
75634;SDS011;64227;48.724;9.104;2023-06-04T11:45:53;2.20;;;1.98;;
75634;SDS011;64227;48.724;9.104;2023-06-04T11:48:18;2.72;;;2.30;;
75634;SDS011;64227;48.724;9.104;2023-06-04T11:50:45;3.28;;;2.30;;
75634;SDS011;64227;48.724;9.104;2023-06-04T11:53:11;2.90;;;2.10;;
75634;SDS011;64227;48.724;9.104;2023-06-04T11:55:39;2.50;;;2.30;;
75634;SDS011;64227;48.724;9.104;2023-06-04T11:58:05;2.97;;;2.53;;
75634;SDS011;64227;48.724;9.104;2023-06-04T12:00:30;3.33;;;2.85;;
75634;SDS011;64227;48.724;9.104;2023-06-04T12:02:56;4.63;;;3.03;;
75634;SDS011;64227;48.724;9.104;2023-06-04T12:05:23;3.67;;;2.40;;
75634;SDS011;64227;48.724;9.104;2023-06-04T12:07:49;2.45;;;2.25;;
75634;SDS011;64227;48.724;9.104;2023-06-04T12:10:16;3.40;;;2.60;;
75634;SDS011;64227;48.724;9.104;2023-06-04T12:12:45;3.30;;;2.20;;
75634;SDS011;64227;48.724;9.104;2023-06-04T12:15:11;5.13;;;2.90;;
75634;SDS011;64227;48.724;9.104;2023-06-04T12:17:36;3.85;;;2.20;;
75634;SDS011;64227;48.724;9.104;2023-06-04T12:20:02;3.28;;;2.97;;
75634;SDS011;64227;48.724;9.104;2023-06-04T12:22:28;2.45;;;2.25;;
75634;SDS011;64227;48.724;9.104;2023-06-04T12:24:56;3.35;;;2.55;;
75634;SDS011;64227;48.724;9.104;2023-06-04T12:27:23;3.92;;;2.45;;
75634;SDS011;64227;48.724;9.104;2023-06-04T12:32:25;2.38;;;2.17;;
75634;SDS011;64227;48.724;9.104;2023-06-04T12:34:50;2.70;;;2.30;;
75634;SDS011;64227;48.724;9.104;2023-06-04T12:37:16;2.67;;;2.45;;
75634;SDS011;64227;48.724;9.104;2023-06-04T12:39:41;4.60;;;2.38;;
75634;SDS011;64227;48.724;9.104;2023-06-04T12:42:07;2.72;;;2.30;;
75634;SDS011;64227;48.724;9.104;2023-06-04T12:44:37;4.32;;;2.40;;
75634;SDS011;64227;48.724;9.104;2023-06-04T12:47:03;3.53;;;2.40;;
75634;SDS011;64227;48.724;9.104;2023-06-04T12:49:29;4.10;;;2.42;;
75634;SDS011;64227;48.724;9.104;2023-06-04T12:51:54;2.85;;;2.47;;
75634;SDS011;64227;48.724;9.104;2023-06-04T12:54:20;3.58;;;2.65;;
75634;SDS011;64227;48.724;9.104;2023-06-04T12:56:45;2.65;;;2.40;;
75634;SDS011;64227;48.724;9.104;2023-06-04T12:59:11;2.67;;;2.40;;
75634;SDS011;64227;48.724;9.104;2023-06-04T13:01:36;3.10;;;2.80;;
75634;SDS011;64227;48.724;9.104;2023-06-04T13:04:03;3.40;;;2.83;;
75634;SDS011;64227;48.724;9.104;2023-06-04T13:06:28;3.35;;;2.40;;
75634;SDS011;64227;48.724;9.104;2023-06-04T13:08:53;3.15;;;2.47;;
75634;SDS011;64227;48.724;9.104;2023-06-04T13:11:19;2.67;;;2.45;;
75634;SDS011;64227;48.724;9.104;2023-06-04T13:13:45;3.65;;;2.60;;
75634;SDS011;64227;48.724;9.104;2023-06-04T13:16:10;2.85;;;2.15;;
75634;SDS011;64227;48.724;9.104;2023-06-04T13:18:35;2.10;;;1.90;;
75634;SDS011;64227;48.724;9.104;2023-06-04T13:21:01;5.97;;;2.50;;
75634;SDS011;64227;48.724;9.104;2023-06-04T13:23:26;2.30;;;2.08;;
75634;SDS011;64227;48.724;9.104;2023-06-04T13:25:52;3.10;;;2.80;;
75634;SDS011;64227;48.724;9.104;2023-06-04T13:28:17;3.47;;;2.85;;
75634;SDS011;64227;48.724;9.104;2023-06-04T13:30:42;3.15;;;2.65;;
75634;SDS011;64227;48.724;9.104;2023-06-04T13:33:08;3.15;;;2.85;;
75634;SDS011;64227;48.724;9.104;2023-06-04T13:35:33;2.95;;;2.30;;
75634;SDS011;64227;48.724;9.104;2023-06-04T13:37:59;4.53;;;2.42;;
75634;SDS011;64227;48.724;9.104;2023-06-04T13:40:24;4.63;;;2.65;;
75634;SDS011;64227;48.724;9.104;2023-06-04T13:42:50;3.10;;;2.35;;
75634;SDS011;64227;48.724;9.104;2023-06-04T13:45:15;4.60;;;2.42;;
75634;SDS011;64227;48.724;9.104;2023-06-04T13:47:42;3.40;;;2.08;;
75634;SDS011;64227;48.724;9.104;2023-06-04T13:50:07;3.72;;;2.20;;
75634;SDS011;64227;48.724;9.104;2023-06-04T13:52:33;3.30;;;2.72;;
75634;SDS011;64227;48.724;9.104;2023-06-04T13:54:58;3.50;;;2.92;;
75634;SDS011;64227;48.724;9.104;2023-06-04T13:57:24;2.60;;;2.40;;
75634;SDS011;64227;48.724;9.104;2023-06-04T13:59:50;2.88;;;2.58;;
75634;SDS011;64227;48.724;9.104;2023-06-04T14:02:15;4.85;;;2.80;;
75634;SDS011;64227;48.724;9.104;2023-06-04T14:04:40;3.92;;;2.80;;
75634;SDS011;64227;48.724;9.104;2023-06-04T14:07:06;2.65;;;2.40;;
75634;SDS011;64227;48.724;9.104;2023-06-04T14:09:31;4.60;;;2.55;;
75634;SDS011;64227;48.724;9.104;2023-06-04T14:11:57;2.60;;;2.33;;
75634;SDS011;64227;48.724;9.104;2023-06-04T14:14:22;3.80;;;2.67;;
75634;SDS011;64227;48.724;9.104;2023-06-04T14:16:48;3.17;;;2.58;;
75634;SDS011;64227;48.724;9.104;2023-06-04T14:19:13;3.67;;;2.63;;
75634;SDS011;64227;48.724;9.104;2023-06-04T14:21:40;4.00;;;2.85;;
75634;SDS011;64227;48.724;9.104;2023-06-04T14:24:05;6.82;;;2.63;;
75634;SDS011;64227;48.724;9.104;2023-06-04T14:26:31;4.25;;;2.22;;
75634;SDS011;64227;48.724;9.104;2023-06-04T14:28:56;2.58;;;2.10;;
75634;SDS011;64227;48.724;9.104;2023-06-04T14:31:22;2.80;;;1.88;;
75634;SDS011;64227;48.724;9.104;2023-06-04T14:33:47;4.05;;;2.03;;
75634;SDS011;64227;48.724;9.104;2023-06-04T14:36:12;2.95;;;2.45;;
75634;SDS011;64227;48.724;9.104;2023-06-04T14:38:38;3.35;;;2.30;;
75634;SDS011;64227;48.724;9.104;2023-06-04T14:41:03;2.85;;;2.55;;
75634;SDS011;64227;48.724;9.104;2023-06-04T14:43:29;3.20;;;2.65;;
75634;SDS011;64227;48.724;9.104;2023-06-04T14:45:54;2.92;;;2.63;;
75634;SDS011;64227;48.724;9.104;2023-06-04T14:48:19;2.85;;;2.40;;
75634;SDS011;64227;48.724;9.104;2023-06-04T14:50:45;63.80;;;5.10;;